createdAt,value
2022-11-20T00:01:53.149Z,61.43
2022-11-20T00:04:21.892Z,61.67
2022-11-20T00:06:50.664Z,66.87
2022-11-20T00:09:19.590Z,71.03
2022-11-20T00:11:48.514Z,67.43
2022-11-20T00:14:17.755Z,68.90
2022-11-20T00:16:47.023Z,67.63
2022-11-20T00:19:16.570Z,63.13
2022-11-20T00:21:48.095Z,66.70
2022-11-20T00:24:17.027Z,62.33
2022-11-20T00:26:53.214Z,64.30
2022-11-20T00:29:23.369Z,58.33
2022-11-20T00:31:52.305Z,68.30
2022-11-20T00:34:20.960Z,60.40
2022-11-20T00:36:49.588Z,69.97
2022-11-20T00:39:18.808Z,63.70
2022-11-20T00:41:48.192Z,66.73
2022-11-20T00:44:16.836Z,63.10
2022-11-20T00:46:46.028Z,66.13
2022-11-20T00:49:14.640Z,67.27
2022-11-20T00:51:43.712Z,61.50
2022-11-20T00:54:12.427Z,64.70
2022-11-20T00:56:41.012Z,67.73
2022-11-20T00:59:11.694Z,60.43
2022-11-20T01:01:40.441Z,60.60
2022-11-20T01:04:09.240Z,66.30
2022-11-20T01:06:39.455Z,61.00
2022-11-20T01:09:12.326Z,61.53
2022-11-20T01:11:43.085Z,60.27
2022-11-20T01:14:14.519Z,64.40
2022-11-20T01:16:46.643Z,59.40
2022-11-20T01:19:18.077Z,62.10
2022-11-20T01:21:49.393Z,61.80
2022-11-20T01:24:20.517Z,64.37
2022-11-20T01:26:50.479Z,64.30
2022-11-20T01:29:21.430Z,67.50
2022-11-20T01:31:51.923Z,65.03
2022-11-20T01:34:22.640Z,65.37
2022-11-20T01:36:53.192Z,67.47
2022-11-20T01:39:24.719Z,68.53
2022-11-20T01:42:13.178Z,72.90
2022-11-20T01:44:57.090Z,67.07
2022-11-20T01:47:33.272Z,65.25
2022-11-20T01:50:07.832Z,64.25
2022-11-20T01:52:41.937Z,60.70
2022-11-20T01:55:15.832Z,64.23
2022-11-20T01:57:46.466Z,63.37
2022-11-20T02:00:18.931Z,54.90
2022-11-20T02:02:57.068Z,62.33
2022-11-20T02:05:29.495Z,61.03
2022-11-20T02:08:00.154Z,54.13
2022-11-20T02:10:31.363Z,59.03
2022-11-20T02:13:20.247Z,61.57
2022-11-20T02:15:51.739Z,58.47
2022-11-20T02:18:22.848Z,89.63
2022-11-20T02:20:59.945Z,98.53
2022-11-20T02:23:37.933Z,98.77
2022-11-20T02:26:12.156Z,113.37
2022-11-20T02:28:41.522Z,107.97
2022-11-20T02:31:10.272Z,94.23
2022-11-20T02:33:39.255Z,85.63
2022-11-20T02:36:12.323Z,75.10
2022-11-20T02:38:40.978Z,63.97
2022-11-20T02:41:10.112Z,58.23
2022-11-20T02:43:44.507Z,60.93
2022-11-20T02:46:15.216Z,63.75
2022-11-20T02:48:46.770Z,63.20
2022-11-20T02:51:19.534Z,59.97
2022-11-20T02:53:48.602Z,57.10
2022-11-20T02:56:17.493Z,56.10
2022-11-20T02:58:47.939Z,58.00
2022-11-20T03:01:16.521Z,56.70
2022-11-20T03:03:48.979Z,60.33
2022-11-20T03:06:20.326Z,57.93
2022-11-20T03:08:48.952Z,57.47
2022-11-20T03:11:17.687Z,52.97
2022-11-20T03:13:47.709Z,62.17
2022-11-20T03:16:19.052Z,51.40
2022-11-20T03:18:48.972Z,59.13
2022-11-20T03:21:17.864Z,55.57
2022-11-20T03:23:47.102Z,62.27
2022-11-20T03:26:17.421Z,61.43
2022-11-20T03:28:50.170Z,59.80
2022-11-20T03:31:21.098Z,65.57
2022-11-20T03:33:49.739Z,60.43
2022-11-20T03:36:21.197Z,67.07
2022-11-20T03:38:50.242Z,61.60
2022-11-20T03:41:22.586Z,68.10
2022-11-20T03:43:52.666Z,64.63
2022-11-20T03:46:21.777Z,61.50
2022-11-20T03:48:52.194Z,68.57
2022-11-20T03:51:22.737Z,63.83
2022-11-20T03:53:53.421Z,65.93
2022-11-20T03:56:29.599Z,63.67
2022-11-20T03:58:59.091Z,61.50
2022-11-20T04:01:31.182Z,67.03
2022-11-20T04:04:01.044Z,66.70
2022-11-20T04:06:35.276Z,71.00
2022-11-20T04:11:34.095Z,58.67
2022-11-20T04:14:05.039Z,68.20
2022-11-20T04:16:37.231Z,69.10
2022-11-20T04:19:11.108Z,72.37
2022-11-20T04:21:39.706Z,60.85
2022-11-20T04:24:09.127Z,67.40
2022-11-20T04:26:40.714Z,66.95
2022-11-20T04:29:12.735Z,63.03
2022-11-20T04:31:42.534Z,63.03
2022-11-20T04:34:13.896Z,62.93
2022-11-20T04:36:43.207Z,64.27
2022-11-20T04:39:15.971Z,63.40
2022-11-20T04:41:45.563Z,68.23
2022-11-20T04:44:14.569Z,66.00
2022-11-20T04:47:06.336Z,65.77
2022-11-20T04:49:36.264Z,68.37
2022-11-20T04:52:05.353Z,67.00
2022-11-20T04:54:36.042Z,66.50
2022-11-20T04:57:07.866Z,63.50
2022-11-20T04:59:39.258Z,59.37
2022-11-20T05:02:08.315Z,64.30
2022-11-20T05:04:37.546Z,63.37
2022-11-20T05:07:12.431Z,56.60
2022-11-20T05:09:41.700Z,59.10
2022-11-20T05:12:11.416Z,60.57
2022-11-20T05:14:40.284Z,59.23
2022-11-20T05:17:16.650Z,60.63
2022-11-20T05:19:52.889Z,58.07
2022-11-20T05:22:22.649Z,54.97
2022-11-20T05:24:51.435Z,63.00
2022-11-20T05:27:20.307Z,62.33
2022-11-20T05:29:49.291Z,66.95
2022-11-20T05:32:17.979Z,67.73
2022-11-20T05:34:46.859Z,64.80
2022-11-20T05:37:15.532Z,64.33
2022-11-20T05:39:45.851Z,64.37
2022-11-20T05:42:31.254Z,61.20
2022-11-20T05:45:01.264Z,67.12
2022-11-20T05:47:33.926Z,57.37
2022-11-20T05:50:03.343Z,67.57
2022-11-20T05:52:32.695Z,54.40
2022-11-20T05:55:07.101Z,55.60
2022-11-20T05:57:36.522Z,64.10
2022-11-20T06:00:08.168Z,61.50
2022-11-20T06:02:37.349Z,55.70
2022-11-20T06:05:07.678Z,52.87
2022-11-20T06:07:36.383Z,59.57
2022-11-20T06:10:07.177Z,61.87
2022-11-20T06:12:35.987Z,56.47
2022-11-20T06:15:07.790Z,66.77
2022-11-20T06:17:36.617Z,64.00
2022-11-20T06:20:09.664Z,61.30
2022-11-20T06:22:38.715Z,62.17
2022-11-20T06:25:09.052Z,64.27
2022-11-20T06:27:37.856Z,59.80
2022-11-20T06:30:12.804Z,62.17
2022-11-20T06:32:41.631Z,57.85
2022-11-20T06:35:13.523Z,66.40
2022-11-20T06:37:43.305Z,63.27
2022-11-20T06:40:15.395Z,68.93
2022-11-20T06:42:44.144Z,60.93
2022-11-20T06:45:13.122Z,65.73
2022-11-20T06:47:42.973Z,60.00
2022-11-20T06:50:12.946Z,56.60
2022-11-20T06:52:43.748Z,59.63
2022-11-20T06:55:12.719Z,59.63
2022-11-20T06:57:43.763Z,59.60
2022-11-20T07:00:16.398Z,61.27
2022-11-20T07:02:45.280Z,56.93
2022-11-20T07:05:14.358Z,63.85
2022-11-20T07:07:47.146Z,63.30
2022-11-20T07:10:16.203Z,59.43
2022-11-20T07:12:52.051Z,66.00
2022-11-20T07:15:24.771Z,58.87
2022-11-20T07:17:57.122Z,56.70
2022-11-20T07:20:28.685Z,61.43
2022-11-20T07:22:58.319Z,67.53
2022-11-20T07:25:31.768Z,62.40
2022-11-20T07:28:00.979Z,64.90
2022-11-20T07:30:31.889Z,62.37
2022-11-20T07:33:00.609Z,59.50
2022-11-20T07:35:31.444Z,64.10
2022-11-20T07:38:02.161Z,62.50
2022-11-20T07:40:30.962Z,57.80
2022-11-20T07:42:59.796Z,64.60
2022-11-20T07:45:29.276Z,63.47
2022-11-20T07:47:57.976Z,64.93
2022-11-20T07:50:28.803Z,64.70
2022-11-20T07:53:03.803Z,55.33
2022-11-20T07:55:34.083Z,61.63
2022-11-20T07:58:02.808Z,56.23
2022-11-20T08:00:31.459Z,63.53
2022-11-20T08:03:00.134Z,63.10
2022-11-20T08:05:29.493Z,60.07
2022-11-20T08:07:59.725Z,56.53
2022-11-20T08:10:28.750Z,56.73
2022-11-20T08:13:15.672Z,63.70
2022-11-20T08:15:50.561Z,60.23
2022-11-20T08:18:37.195Z,63.70
2022-11-20T08:21:07.192Z,61.10
2022-11-20T08:23:42.339Z,58.83
2022-11-20T08:26:11.188Z,58.87
2022-11-20T08:28:39.895Z,60.27
2022-11-20T08:31:10.182Z,62.67
2022-11-20T08:33:39.378Z,63.10
2022-11-20T08:36:09.133Z,54.00
2022-11-20T08:38:37.821Z,66.50
2022-11-20T08:41:39.002Z,67.03
2022-11-20T08:44:09.171Z,51.50
2022-11-20T08:46:52.400Z,62.60
2022-11-20T08:49:23.798Z,56.03
2022-11-20T08:51:55.579Z,64.90
2022-11-20T08:54:24.462Z,57.77
2022-11-20T08:56:53.205Z,57.57
2022-11-20T09:02:12.967Z,53.70
2022-11-20T09:04:43.436Z,68.40
2022-11-20T09:07:14.332Z,57.53
2022-11-20T09:09:44.183Z,62.37
2022-11-20T09:12:12.986Z,61.60
2022-11-20T09:14:41.717Z,63.10
2022-11-20T09:17:14.121Z,64.83
2022-11-20T09:19:43.308Z,66.43
2022-11-20T09:22:13.581Z,59.97
2022-11-20T09:24:49.733Z,60.53
2022-11-20T09:27:21.278Z,62.93
2022-11-20T09:29:51.290Z,69.90
2022-11-20T09:32:22.640Z,64.53
2022-11-20T09:34:51.393Z,64.40
2022-11-20T09:37:20.136Z,67.70
2022-11-20T09:39:49.098Z,59.80
2022-11-20T09:42:38.024Z,45.13
2022-11-20T09:45:24.220Z,62.43
2022-11-20T09:48:09.954Z,63.57
2022-11-20T09:50:44.828Z,63.20
2022-11-20T09:53:22.112Z,58.23
2022-11-20T09:55:51.578Z,50.60
2022-11-20T09:58:30.725Z,52.37
2022-11-20T10:01:10.033Z,51.35
2022-11-20T10:03:46.895Z,49.83
2022-11-20T10:06:22.298Z,52.30
2022-11-20T10:09:02.517Z,51.37
2022-11-20T10:11:45.980Z,49.13
2022-11-20T10:14:28.024Z,50.00
2022-11-20T10:17:09.166Z,47.53
2022-11-20T10:19:56.122Z,50.00
2022-11-20T10:22:45.819Z,46.40
2022-11-20T10:25:18.846Z,51.07
2022-11-20T10:28:00.980Z,46.83
2022-11-20T10:30:31.191Z,47.60
2022-11-20T10:33:05.527Z,46.33
2022-11-20T10:35:40.166Z,41.87
2022-11-20T10:38:17.509Z,43.10
2022-11-20T10:40:49.801Z,46.90
2022-11-20T10:43:32.986Z,44.17
2022-11-20T10:46:06.060Z,47.80
2022-11-20T10:48:37.414Z,43.35
2022-11-20T10:51:19.079Z,46.35
2022-11-20T10:54:10.769Z,44.10
2022-11-20T10:56:48.327Z,49.10
2022-11-20T10:59:45.126Z,47.70
2022-11-20T11:02:21.990Z,45.00
2022-11-20T11:04:52.348Z,50.07
2022-11-20T11:07:25.560Z,49.90
2022-11-20T11:09:56.720Z,43.75
2022-11-20T11:12:29.223Z,46.50
2022-11-20T11:14:58.794Z,39.80
2022-11-20T11:17:41.201Z,42.53
2022-11-20T11:20:18.356Z,43.07
2022-11-20T11:22:49.564Z,41.47
2022-11-20T11:25:25.036Z,43.17
2022-11-20T11:28:00.433Z,44.90
2022-11-20T11:30:41.175Z,45.87
2022-11-20T11:33:13.234Z,41.77
2022-11-20T11:35:51.171Z,42.43
2022-11-20T11:38:30.618Z,42.55
2022-11-20T11:40:59.789Z,40.33
2022-11-20T11:43:51.854Z,42.10
2022-11-20T11:46:33.464Z,44.93
2022-11-20T11:49:16.911Z,45.30
2022-11-20T11:52:00.160Z,44.57
2022-11-20T11:54:35.721Z,50.03
2022-11-20T11:57:13.576Z,46.47
2022-11-20T11:59:59.068Z,43.23
2022-11-20T12:02:50.048Z,40.60
2022-11-20T12:05:24.279Z,42.07
2022-11-20T12:07:57.495Z,44.80
2022-11-20T12:10:41.474Z,38.47
2022-11-20T12:13:23.463Z,39.03
2022-11-20T12:15:52.589Z,41.03
2022-11-20T12:18:23.413Z,42.03
2022-11-20T12:21:12.489Z,43.40
2022-11-20T12:23:53.380Z,44.47
2022-11-20T12:26:36.369Z,45.93
2022-11-20T12:29:13.076Z,41.07
2022-11-20T12:32:20.948Z,40.07
2022-11-20T12:35:11.134Z,46.00
2022-11-20T12:37:54.432Z,46.17
2022-11-20T12:40:36.578Z,46.20
2022-11-20T12:43:35.851Z,42.73
2022-11-20T12:46:23.364Z,42.20
2022-11-20T12:49:24.508Z,46.23
2022-11-20T12:52:09.988Z,38.97
2022-11-20T12:55:02.788Z,43.50
2022-11-20T12:57:50.883Z,41.47
2022-11-20T13:00:23.303Z,40.53
2022-11-20T13:03:27.668Z,47.87
2022-11-20T13:06:06.245Z,44.77
2022-11-20T13:08:37.601Z,42.83
2022-11-20T13:11:15.710Z,42.00
2022-11-20T13:14:00.295Z,45.23
2022-11-20T13:19:12.906Z,43.73
2022-11-20T13:21:50.819Z,43.95
2022-11-20T13:24:27.104Z,52.83
2022-11-20T13:27:05.123Z,49.97
2022-11-20T13:29:38.369Z,54.83
2022-11-20T13:32:17.086Z,50.57
2022-11-20T13:34:56.263Z,45.20
2022-11-20T13:37:37.287Z,43.23
2022-11-20T13:40:23.385Z,44.27
2022-11-20T13:43:05.016Z,46.93
2022-11-20T13:45:34.683Z,46.47
2022-11-20T13:48:19.699Z,53.13
2022-11-20T13:50:59.706Z,60.47
2022-11-20T13:54:10.562Z,53.87
2022-11-20T13:56:57.635Z,41.43
2022-11-20T13:59:49.710Z,45.53
2022-11-20T14:02:21.802Z,43.70
2022-11-20T14:04:54.078Z,43.53
2022-11-20T14:07:29.590Z,44.90
2022-11-20T14:09:58.904Z,50.37
2022-11-20T14:12:31.826Z,55.33
2022-11-20T14:15:01.274Z,47.73
2022-11-20T14:17:33.961Z,50.55
2022-11-20T14:20:23.453Z,49.20
2022-11-20T14:22:52.954Z,45.80
2022-11-20T14:25:23.835Z,46.30
2022-11-20T14:27:55.529Z,49.87
2022-11-20T14:30:26.621Z,50.37
2022-11-20T14:33:01.243Z,52.77
2022-11-20T14:35:34.512Z,53.80
2022-11-20T14:38:04.532Z,50.47
2022-11-20T14:40:36.081Z,47.30
2022-11-20T14:43:19.827Z,53.47
2022-11-20T14:45:55.828Z,48.37
2022-11-20T14:48:30.418Z,53.43
2022-11-20T14:50:59.396Z,54.73
2022-11-20T14:53:28.169Z,48.37
2022-11-20T14:56:01.283Z,50.83
2022-11-20T14:58:33.877Z,55.40
2022-11-20T15:01:05.344Z,52.47
2022-11-20T15:03:35.956Z,51.53
2022-11-20T15:06:05.474Z,52.90
2022-11-20T15:08:35.155Z,57.95
2022-11-20T15:11:17.570Z,60.13
2022-11-20T15:13:46.659Z,65.90
2022-11-20T15:16:21.166Z,62.00
2022-11-20T15:18:50.994Z,62.10
2022-11-20T15:21:23.018Z,51.57
2022-11-20T15:23:52.696Z,64.23
2022-11-20T15:26:26.284Z,60.63
2022-11-20T15:28:56.306Z,59.63
2022-11-20T15:31:25.553Z,55.40
2022-11-20T15:33:54.793Z,59.90
2022-11-20T15:36:23.602Z,54.83
2022-11-20T15:38:52.523Z,54.20
2022-11-20T15:41:21.191Z,53.67
2022-11-20T15:43:50.453Z,52.63
2022-11-20T15:46:27.774Z,52.63
2022-11-20T15:49:15.767Z,50.80
2022-11-20T15:51:48.122Z,51.73
2022-11-20T15:54:20.786Z,54.37
2022-11-20T15:56:57.310Z,61.37
2022-11-20T15:59:26.190Z,44.67
2022-11-20T16:01:55.402Z,49.27
2022-11-20T16:04:24.419Z,56.13
2022-11-20T16:06:53.468Z,52.23
2022-11-20T16:09:22.101Z,52.40
2022-11-20T16:11:51.450Z,56.13
2022-11-20T16:14:38.902Z,52.23
2022-11-20T16:17:07.599Z,55.77
2022-11-20T16:19:37.174Z,57.57
2022-11-20T16:22:05.923Z,58.40
2022-11-20T16:24:34.903Z,53.27
2022-11-20T16:27:03.820Z,53.20
2022-11-20T16:29:32.554Z,59.33
2022-11-20T16:32:01.271Z,59.23
2022-11-20T16:34:32.733Z,61.20
2022-11-20T16:37:02.015Z,60.57
2022-11-20T16:39:31.327Z,60.40
2022-11-20T16:42:05.710Z,58.80
2022-11-20T16:44:34.915Z,60.03
2022-11-20T16:47:03.819Z,56.87
2022-11-20T16:49:32.707Z,60.60
2022-11-20T16:52:02.020Z,57.00
2022-11-20T16:54:33.579Z,55.20
2022-11-20T16:57:02.233Z,58.77
2022-11-20T16:59:32.184Z,60.90
2022-11-20T17:02:01.221Z,55.80
2022-11-20T17:04:32.209Z,57.60
2022-11-20T17:07:07.683Z,60.23
2022-11-20T17:09:37.140Z,52.63
2022-11-20T17:12:07.470Z,59.80
2022-11-20T17:14:36.309Z,59.43
2022-11-20T17:17:05.859Z,63.53
2022-11-20T17:19:34.777Z,63.17
2022-11-20T17:22:04.872Z,65.80
2022-11-20T17:24:34.662Z,64.20
2022-11-20T17:27:04.225Z,60.17
2022-11-20T17:29:37.849Z,66.90
2022-11-20T17:32:11.886Z,62.10
2022-11-20T17:34:41.130Z,60.23
2022-11-20T17:37:10.958Z,60.20
2022-11-20T17:39:40.425Z,64.25
2022-11-20T17:42:32.969Z,59.95
2022-11-20T17:45:02.251Z,64.10
2022-11-20T17:47:42.647Z,71.37
2022-11-20T17:50:12.492Z,73.20
2022-11-20T17:52:45.268Z,64.00
2022-11-20T17:55:14.331Z,55.87
2022-11-20T17:57:52.906Z,61.27
2022-11-20T18:00:22.367Z,59.20
2022-11-20T18:02:51.284Z,57.80
2022-11-20T18:05:21.947Z,59.93
2022-11-20T18:07:54.117Z,61.63
2022-11-20T18:10:23.653Z,60.23
2022-11-20T18:12:54.087Z,60.87
2022-11-20T18:15:23.805Z,68.80
2022-11-20T18:17:52.761Z,62.60
2022-11-20T18:20:32.007Z,66.17
2022-11-20T18:23:02.849Z,76.27
2022-11-20T18:25:33.957Z,89.20
2022-11-20T18:28:04.830Z,74.53
2022-11-20T18:30:36.490Z,72.77
2022-11-20T18:33:06.541Z,81.17
2022-11-20T18:35:35.825Z,92.47
2022-11-20T18:38:04.923Z,81.13
2022-11-20T18:40:35.856Z,81.40
2022-11-20T18:43:24.220Z,69.70
2022-11-20T18:46:05.479Z,71.83
2022-11-20T18:48:36.314Z,69.23
2022-11-20T18:51:08.284Z,74.65
2022-11-20T18:53:40.840Z,72.20
2022-11-20T18:56:20.003Z,74.80
2022-11-20T18:58:49.712Z,69.77
2022-11-20T19:01:21.721Z,78.53
2022-11-20T19:03:52.400Z,72.67
2022-11-20T19:06:21.796Z,77.13
2022-11-20T19:08:51.262Z,81.90
2022-11-20T19:11:20.147Z,80.60
2022-11-20T19:13:59.689Z,74.07
2022-11-20T19:16:38.607Z,66.90
2022-11-20T19:19:07.780Z,63.50
2022-11-20T19:21:37.983Z,71.87
2022-11-20T19:24:08.997Z,76.27
2022-11-20T19:26:45.858Z,71.73
2022-11-20T19:29:17.250Z,66.53
2022-11-20T19:31:48.422Z,66.37
2022-11-20T19:34:17.437Z,75.63
2022-11-20T19:36:46.710Z,70.70
2022-11-20T19:39:16.014Z,66.43
2022-11-20T19:41:45.012Z,78.93
2022-11-20T19:44:17.757Z,80.23
2022-11-20T19:46:47.459Z,84.43
2022-11-20T19:49:16.857Z,72.33
2022-11-20T19:51:47.667Z,81.13
2022-11-20T19:54:18.974Z,89.32
2022-11-20T19:56:49.239Z,95.47
2022-11-20T19:59:18.043Z,87.57
2022-11-20T20:01:47.044Z,101.23
2022-11-20T20:04:15.857Z,95.80
2022-11-20T20:06:44.752Z,86.03
2022-11-20T20:09:18.849Z,85.60
2022-11-20T20:14:21.949Z,82.23
2022-11-20T20:16:51.548Z,82.53
2022-11-20T20:19:23.826Z,91.17
2022-11-20T20:21:54.699Z,80.53
2022-11-20T20:24:28.126Z,86.87
2022-11-20T20:27:00.489Z,85.67
2022-11-20T20:29:29.442Z,90.40
2022-11-20T20:32:00.342Z,83.27
2022-11-20T20:34:31.718Z,90.63
2022-11-20T20:37:03.958Z,83.80
2022-11-20T20:39:34.497Z,80.23
2022-11-20T20:42:06.747Z,84.93
2022-11-20T20:44:57.173Z,91.63
2022-11-20T20:47:31.171Z,91.23
2022-11-20T20:50:00.415Z,88.17
2022-11-20T20:52:29.404Z,90.07
2022-11-20T20:55:00.839Z,90.27
2022-11-20T20:57:29.986Z,90.53
2022-11-20T20:59:59.798Z,87.87
2022-11-20T21:02:28.976Z,91.50
2022-11-20T21:04:59.597Z,124.90
2022-11-20T21:07:29.836Z,109.80
2022-11-20T21:09:59.017Z,97.10
2022-11-20T21:12:29.999Z,94.43
2022-11-20T21:14:59.521Z,96.23
2022-11-20T21:17:29.400Z,95.97
2022-11-20T21:20:00.128Z,90.50
2022-11-20T21:22:36.221Z,102.90
2022-11-20T21:25:09.983Z,95.87
2022-11-20T21:28:01.163Z,97.70
2022-11-20T21:30:30.623Z,97.43
2022-11-20T21:33:02.607Z,93.17
2022-11-20T21:35:35.123Z,92.70
2022-11-20T21:38:05.096Z,92.40
2022-11-20T21:40:36.854Z,100.87
2022-11-20T21:43:05.885Z,95.07
2022-11-20T21:45:35.760Z,92.63
2022-11-20T21:48:06.300Z,90.87
2022-11-20T21:50:38.645Z,90.63
2022-11-20T21:53:07.552Z,85.63
2022-11-20T21:55:36.581Z,99.00
2022-11-20T21:58:05.631Z,88.77
2022-11-20T22:00:36.159Z,93.37
2022-11-20T22:03:06.107Z,90.57
2022-11-20T22:05:35.563Z,88.87
2022-11-20T22:08:05.169Z,81.27
2022-11-20T22:10:36.420Z,86.50
2022-11-20T22:13:25.423Z,87.83
2022-11-20T22:16:02.492Z,87.30
2022-11-20T22:18:31.694Z,86.87
2022-11-20T22:21:06.000Z,93.60
2022-11-20T22:23:38.558Z,90.67
2022-11-20T22:26:09.714Z,87.53
2022-11-20T22:28:39.308Z,91.47
2022-11-20T22:31:12.016Z,85.93
2022-11-20T22:33:41.398Z,98.00
2022-11-20T22:36:13.069Z,111.23
2022-11-20T22:38:42.971Z,100.57
2022-11-20T22:41:13.827Z,105.87
2022-11-20T22:43:47.294Z,96.17
2022-11-20T22:46:18.595Z,100.90
2022-11-20T22:48:52.820Z,94.03
2022-11-20T22:53:55.420Z,94.77
2022-11-20T22:56:24.774Z,98.47
2022-11-20T22:58:56.270Z,102.43
2022-11-20T23:01:30.070Z,93.50
2022-11-20T23:04:05.523Z,91.77
2022-11-20T23:06:36.665Z,103.53
2022-11-20T23:09:08.344Z,100.47
2022-11-20T23:11:37.364Z,94.50
2022-11-20T23:14:10.384Z,98.10
2022-11-20T23:16:42.938Z,96.97
2022-11-20T23:19:14.217Z,100.43
2022-11-20T23:21:43.502Z,101.97
2022-11-20T23:24:12.363Z,102.10
2022-11-20T23:26:44.742Z,102.60
2022-11-20T23:29:14.874Z,104.00
2022-11-20T23:31:47.736Z,104.40
2022-11-20T23:34:19.035Z,110.30
2022-11-20T23:36:49.875Z,100.10
2022-11-20T23:39:18.734Z,96.10
2022-11-20T23:41:47.841Z,109.93
2022-11-20T23:44:16.901Z,113.73
2022-11-20T23:46:50.653Z,114.90
2022-11-20T23:49:20.190Z,103.90
2022-11-20T23:51:48.898Z,112.23
2022-11-20T23:54:21.324Z,108.57
2022-11-20T23:56:50.406Z,109.70
2022-11-20T23:59:19.527Z,110.67
